»·PEaware :: N2710U KYKM-KPDX

N2710U :: KYKM-KPDX

FLIGHT INFORMATION

Flight Status: Arrived
Operator: Privately registered:
United States
More flights under this callsign
Pilot: Nathan P. (3026)
Aircraft: BEECH AIRCRAFT BARON
(BE58)
More flights by this aircraft type
Origin: KYKM Yakima Air Term/Mcallister
United States
Destination: KPDX Portland Intl
United States
More flights between these airports :: More routes between these airports
Route:
File this flight plan on PilotEdge
Remarks:
Altitude:
(Current/Filed)
6,500ft
Speed:
(Current/Filed)
0kts
Departed: 03-Dec-20 04:54 PM
Arrived: 03-Dec-20 05:36 PM
Distance/Time
Traveled:
103nm/0:42
Distance/Time
To Go:
Arrived

Flight Plot

Page will automatically refresh every two minutes.

Flight plan parsing failed; only flown route is shown


Map Options




Map Legend


Flown Route
Filed Route
Departure Airport
Arrival Airport
Navaid (VOR, NDB)
Fix

Horizontal Profiles

Position Reports

Time Latitude Longitude Heading Altitude Ground
Speed
03-Dec-20 16:51 46.566772 -120.531838 119 1052ft 0kts
03-Dec-20 16:52 46.566454 -120.531522 174 1052ft 0kts
03-Dec-20 16:53 46.571142 -120.553716 289 1395ft 136kts
03-Dec-20 16:54 46.564931 -120.596895 199 2643ft 134kts
03-Dec-20 16:55 46.529933 -120.612961 191 3804ft 130kts
03-Dec-20 16:56 46.495395 -120.628037 198 5186ft 130kts
03-Dec-20 16:57 46.464483 -120.656452 212 6404ft 138kts
03-Dec-20 16:58 46.424797 -120.688611 211 6493ft 180kts
03-Dec-20 16:59 46.386996 -120.734975 212 6558ft 179kts
03-Dec-20 17:00 46.348059 -120.779241 227 6550ft 179kts
03-Dec-20 17:01 46.318343 -120.836986 232 6569ft 180kts
03-Dec-20 17:02 46.283559 -120.887513 221 6574ft 179kts
03-Dec-20 17:03 46.248288 -120.937643 221 6593ft 179kts
03-Dec-20 17:04 46.213166 -120.986533 230 6601ft 181kts
03-Dec-20 17:05 46.178713 -121.041498 226 6537ft 190kts
03-Dec-20 17:06 46.140764 -121.092705 223 6617ft 188kts
03-Dec-20 17:08 46.107178 -121.149711 229 6538ft 189kts
03-Dec-20 17:09 46.063900 -121.193386 207 6414ft 192kts
03-Dec-20 17:10 46.028844 -121.246588 232 6489ft 186kts
03-Dec-20 17:11 45.996213 -121.304005 237 6516ft 184kts
03-Dec-20 17:12 45.968131 -121.365795 247 6552ft 181kts
03-Dec-20 17:13 45.954331 -121.435960 252 6549ft 182kts
03-Dec-20 17:14 45.940156 -121.505966 255 6558ft 182kts
03-Dec-20 17:15 45.929464 -121.576717 255 6564ft 182kts
03-Dec-20 17:16 45.917690 -121.646690 256 6583ft 182kts
03-Dec-20 17:17 45.911554 -121.717411 272 6602ft 180kts
03-Dec-20 17:18 45.902643 -121.788565 255 6542ft 186kts
03-Dec-20 17:19 45.882372 -121.855516 253 6498ft 188kts
03-Dec-20 17:20 45.865267 -121.926041 243 6480ft 184kts
03-Dec-20 17:21 45.860224 -121.996989 260 6429ft 188kts
03-Dec-20 17:22 45.849954 -122.067645 253 6473ft 182kts
03-Dec-20 17:23 45.834949 -122.134720 232 6449ft 176kts
03-Dec-20 17:24 45.804403 -122.186949 221 6313ft 171kts
03-Dec-20 17:24 45.778991 -122.230527 222 5579ft 174kts
03-Dec-20 17:26 45.744131 -122.291642 226 4651ft 176kts
03-Dec-20 17:26 45.722085 -122.337504 229 4000ft 176kts
03-Dec-20 17:28 45.688267 -122.396466 225 2727ft 179kts
03-Dec-20 17:28 45.667232 -122.435989 224 2138ft 173kts
03-Dec-20 17:29 45.643754 -122.477953 226 1610ft 168kts
03-Dec-20 17:30 45.623251 -122.518873 222 1233ft 158kts
03-Dec-20 17:31 45.603342 -122.548947 230 1105ft 135kts
03-Dec-20 17:32 45.606474 -122.583340 294 894ft 106kts
03-Dec-20 17:33 45.606612 -122.613392 182 420ft 113kts
03-Dec-20 17:34 45.594244 -122.594152 119 39ft 76kts
03-Dec-20 17:35 45.589530 -122.582154 135 25ft 17kts
03-Dec-20 17:36 45.588302 -122.582452 208 25ft 14kts
03-Dec-20 17:37 45.585882 -122.580294 122 25ft 0kts
03-Dec-20 17:38 45.585882 -122.580294 122 25ft 0kts
03-Dec-20 17:39 45.585882 -122.580294 122 25ft 0kts
03-Dec-20 17:40 45.585882 -122.580294 122 25ft 0kts
03-Dec-20 17:41 45.585882 -122.580294 122 25ft 0kts
03-Dec-20 17:42 45.585882 -122.580294 122 25ft 0kts
03-Dec-20 17:43 45.585882 -122.580294 122 25ft 0kts
03-Dec-20 17:44 45.585882 -122.580294 122 25ft 0kts
03-Dec-20 17:45 45.585882 -122.580294 122 25ft 0kts
03-Dec-20 17:46 45.585882 -122.580294 122 25ft 0kts
03-Dec-20 17:47 45.585882 -122.580294 122 25ft 0kts
03-Dec-20 17:48 45.585882 -122.580294 122 25ft 0kts
03-Dec-20 17:49 45.585882 -122.580294 122 25ft 0kts

Navigation Log

Ident Type
Flight plan parsing failed, navigation log unavailable